createdAt,value
2019-01-12T00:02:21.687Z,80.90
2019-01-12T00:07:31.001Z,82.20
2019-01-12T00:12:35.070Z,82.40
2019-01-12T00:17:40.405Z,83.20
2019-01-12T00:22:44.022Z,83.50
2019-01-12T00:27:47.626Z,82.80
2019-01-12T00:32:51.433Z,84.60
2019-01-12T00:37:55.039Z,85.30
2019-01-12T00:43:03.033Z,85.30
2019-01-12T00:48:06.695Z,84.70
2019-01-12T00:53:10.566Z,85.00
2019-01-12T00:58:17.155Z,83.90
2019-01-12T01:03:20.990Z,82.20
2019-01-12T01:08:36.171Z,81.80
2019-01-12T01:13:41.461Z,82.70
2019-01-12T01:18:45.087Z,83.20
2019-01-12T01:23:48.701Z,84.20
2019-01-12T01:28:54.374Z,83.90
2019-01-12T01:34:00.571Z,83.90
2019-01-12T01:39:07.006Z,83.10
2019-01-12T01:44:16.133Z,82.40
2019-01-12T01:49:19.745Z,82.50
2019-01-12T01:54:26.329Z,81.90
2019-01-12T01:59:33.488Z,81.40
2019-01-12T02:04:40.039Z,82.40
2019-01-12T02:09:46.384Z,82.80
2019-01-12T02:14:49.997Z,82.40
2019-01-12T02:19:55.263Z,81.70
2019-01-12T02:25:00.052Z,81.40
2019-01-12T02:30:16.299Z,81.40
2019-01-12T02:35:22.725Z,81.20
2019-01-12T02:40:29.239Z,80.70
2019-01-12T02:45:38.586Z,80.20
2019-01-12T02:50:51.975Z,80.50
2019-01-12T02:56:01.611Z,80.10
2019-01-12T03:01:06.932Z,80.10
2019-01-12T03:06:10.683Z,79.60
2019-01-12T03:11:20.354Z,79.80
2019-01-12T03:16:25.844Z,80.80
2019-01-12T03:21:29.786Z,80.90
2019-01-12T03:26:35.043Z,81.20
2019-01-12T03:31:38.643Z,80.70
2019-01-12T03:36:42.628Z,80.90
2019-01-12T03:41:52.181Z,80.40
2019-01-12T03:46:57.564Z,80.70
2019-01-12T03:52:03.939Z,79.90
2019-01-12T03:57:10.240Z,79.70
2019-01-12T04:02:16.786Z,79.30
2019-01-12T04:07:20.408Z,79.20
2019-01-12T04:12:25.650Z,80.20
2019-01-12T04:17:29.269Z,80.50
2019-01-12T04:22:32.886Z,80.20
2019-01-12T04:27:39.686Z,80.00
2019-01-12T04:32:46.604Z,79.50
2019-01-12T04:37:52.969Z,79.90
2019-01-12T04:43:02.350Z,80.70
2019-01-12T04:48:06.044Z,80.00
2019-01-12T04:53:12.387Z,80.40
2019-01-12T04:58:16.271Z,81.30
2019-01-12T05:03:21.855Z,81.00
2019-01-12T05:08:31.515Z,81.80
2019-01-12T05:13:36.748Z,81.80
2019-01-12T05:18:50.969Z,81.80
2019-01-12T05:23:54.583Z,82.50
2019-01-12T05:29:02.241Z,81.90
2019-01-12T05:34:07.854Z,81.70
2019-01-12T05:39:15.155Z,81.60
2019-01-12T05:44:21.774Z,81.80
2019-01-12T05:49:30.987Z,81.40
2019-01-12T05:54:34.602Z,82.20
2019-01-12T05:59:44.259Z,82.40
2019-01-12T06:04:48.121Z,82.50
2019-01-12T06:09:54.383Z,82.60
2019-01-12T06:14:59.649Z,82.00
2019-01-12T06:20:04.668Z,81.80
2019-01-12T06:25:14.322Z,80.80
2019-01-12T06:30:18.946Z,81.20
2019-01-12T06:35:22.879Z,81.10
2019-01-12T06:40:31.141Z,80.40
2019-01-12T06:45:35.892Z,80.10
2019-01-12T06:50:45.433Z,78.90
2019-01-12T06:55:49.453Z,79.00
2019-01-12T07:00:56.009Z,78.40
2019-01-12T07:06:02.322Z,78.80
2019-01-12T07:11:07.462Z,79.30
2019-01-12T07:16:11.135Z,79.10
2019-01-12T07:21:19.381Z,78.90
2019-01-12T07:26:33.445Z,80.00
2019-01-12T07:31:32.611Z,80.30
2019-01-12T07:36:36.498Z,81.70
2019-01-12T07:41:40.147Z,82.50
2019-01-12T07:46:46.704Z,83.60
2019-01-12T07:51:53.274Z,83.90
2019-01-12T07:56:57.462Z,82.70
2019-01-12T08:02:01.141Z,83.40
2019-01-12T08:07:05.733Z,83.70
2019-01-12T08:12:09.411Z,83.40
2019-01-12T08:17:15.798Z,83.60
2019-01-12T08:22:19.391Z,84.20
2019-01-12T08:27:23.003Z,84.00
2019-01-12T08:32:28.884Z,83.10
2019-01-12T08:37:33.288Z,83.20
2019-01-12T08:42:37.738Z,83.90
2019-01-12T08:47:41.504Z,83.50
2019-01-12T08:52:45.306Z,83.20
2019-01-12T08:57:49.066Z,83.50
2019-01-12T09:02:52.720Z,83.30
2019-01-12T09:07:56.558Z,83.00
2019-01-12T09:13:00.225Z,82.30
2019-01-12T09:18:08.505Z,81.40
2019-01-12T09:23:14.617Z,82.20
2019-01-12T09:28:18.222Z,82.50
2019-01-12T09:33:21.955Z,82.00
2019-01-12T09:38:25.621Z,81.20
2019-01-12T09:43:32.197Z,80.30
2019-01-12T09:48:36.738Z,81.10
2019-01-12T09:53:40.429Z,80.70
2019-01-12T09:58:49.996Z,80.40
2019-01-12T10:03:53.640Z,79.30
2019-01-12T10:08:57.262Z,78.50
2019-01-12T10:14:00.862Z,78.00
2019-01-12T10:19:06.980Z,78.10
2019-01-12T10:24:10.668Z,78.30
2019-01-12T10:29:15.884Z,78.80
2019-01-12T10:34:22.602Z,79.20
2019-01-12T10:39:26.225Z,78.70
2019-01-12T10:44:29.847Z,79.00
2019-01-12T10:49:36.573Z,79.00
2019-01-12T10:54:40.178Z,78.10
2019-01-12T10:59:44.915Z,78.10
2019-01-12T11:04:48.560Z,78.10
2019-01-12T11:09:54.890Z,79.20
2019-01-12T11:14:58.566Z,78.70
2019-01-12T11:20:02.453Z,79.50
2019-01-12T11:25:09.546Z,79.70
2019-01-12T11:30:20.492Z,79.80
2019-01-12T11:35:24.094Z,79.50
2019-01-12T11:40:27.921Z,80.30
2019-01-12T11:45:31.556Z,80.30
2019-01-12T11:50:35.180Z,80.60
2019-01-12T11:55:39.667Z,81.40
2019-01-12T12:00:43.314Z,82.00
2019-01-12T12:05:46.930Z,82.00
2019-01-12T12:10:50.542Z,82.40
2019-01-12T12:15:54.257Z,81.80
2019-01-12T12:21:00.851Z,81.50
2019-01-12T12:26:05.405Z,82.00
2019-01-12T12:31:09.602Z,82.20
2019-01-12T12:36:16.279Z,81.50
2019-01-12T12:41:19.908Z,82.60
2019-01-12T12:46:26.534Z,82.80
2019-01-12T12:51:30.162Z,82.00
2019-01-12T12:56:33.950Z,82.50
2019-01-12T13:01:38.687Z,83.00
2019-01-12T13:06:42.382Z,82.40
2019-01-12T13:11:53.107Z,83.10
2019-01-12T13:22:12.266Z,81.40
2019-01-12T13:27:16.225Z,82.00
2019-01-12T13:32:22.743Z,81.80
2019-01-12T13:37:26.350Z,82.40
2019-01-12T13:42:29.967Z,82.10
2019-01-12T13:47:33.604Z,81.50
2019-01-12T13:52:37.414Z,82.10
2019-01-12T13:57:47.449Z,82.20
2019-01-12T14:02:46.630Z,82.20
2019-01-12T14:07:56.111Z,82.30
2019-01-12T14:12:57.521Z,82.20
2019-01-12T14:18:02.744Z,81.90
2019-01-12T14:23:09.333Z,82.00
2019-01-12T14:28:12.939Z,82.10
2019-01-12T14:33:20.776Z,82.80
2019-01-12T14:38:24.381Z,82.20
2019-01-12T14:43:29.615Z,82.00
2019-01-12T14:48:33.211Z,81.70
2019-01-12T14:53:36.818Z,81.10
2019-01-12T14:58:44.446Z,80.70
2019-01-12T15:03:47.361Z,81.10
2019-01-12T15:08:50.967Z,80.40
2019-01-12T15:13:54.765Z,80.90
2019-01-12T15:18:58.407Z,80.90
2019-01-12T15:24:02.039Z,82.10
2019-01-12T15:29:05.852Z,82.60
2019-01-12T15:34:12.674Z,82.50
2019-01-12T15:39:16.613Z,82.40
2019-01-12T15:44:20.505Z,82.30
2019-01-12T15:49:24.107Z,82.50
2019-01-12T15:54:27.835Z,82.50
2019-01-12T15:59:31.554Z,82.70
2019-01-12T16:04:35.191Z,82.90
2019-01-12T16:09:39.310Z,83.00
2019-01-12T16:14:42.930Z,82.80
2019-01-12T16:19:49.486Z,83.00
2019-01-12T16:24:54.117Z,82.50
2019-01-12T16:29:57.726Z,82.00
2019-01-12T16:45:25.348Z,80.80
2019-01-12T16:50:35.006Z,80.00
2019-01-12T16:55:41.500Z,79.20
2019-01-12T17:00:45.144Z,79.50
2019-01-12T17:05:48.758Z,79.10
2019-01-12T17:10:58.019Z,78.90
2019-01-12T17:16:01.908Z,78.10
2019-01-12T17:21:08.525Z,78.50
2019-01-12T17:26:14.862Z,78.30
2019-01-12T17:31:18.538Z,77.80
2019-01-12T17:36:25.322Z,77.90
2019-01-12T17:41:38.047Z,77.90
2019-01-12T17:46:37.357Z,77.80
2019-01-12T17:51:41.247Z,78.00
2019-01-12T17:56:47.799Z,78.40
2019-01-12T18:01:51.408Z,78.90
2019-01-12T18:06:56.640Z,78.80
2019-01-12T18:12:02.172Z,79.00
2019-01-12T18:17:08.759Z,79.00
2019-01-12T18:22:12.505Z,77.80
2019-01-12T18:27:18.122Z,77.40
2019-01-12T18:32:21.810Z,76.20
2019-01-12T18:37:25.584Z,75.70
2019-01-12T18:42:30.840Z,75.40
2019-01-12T18:47:34.603Z,76.10
2019-01-12T18:52:38.235Z,75.30
2019-01-12T18:57:42.178Z,75.00
2019-01-12T19:02:46.260Z,75.30
2019-01-12T19:07:56.542Z,75.00
2019-01-12T19:13:00.189Z,75.40
2019-01-12T19:18:03.987Z,76.10
2019-01-12T19:23:07.667Z,76.10
2019-01-12T19:28:11.275Z,76.40
2019-01-12T19:33:15.210Z,77.30
2019-01-12T19:38:27.754Z,78.70
2019-01-12T19:43:33.152Z,79.70
2019-01-12T19:48:39.762Z,80.80
2019-01-12T19:53:46.094Z,80.50
2019-01-12T19:58:56.514Z,81.20
2019-01-12T20:04:00.138Z,81.70
2019-01-12T20:09:06.915Z,83.20
2019-01-12T20:14:13.738Z,83.80
2019-01-12T20:19:19.174Z,84.20
2019-01-12T20:24:25.514Z,84.70
2019-01-12T20:29:30.738Z,85.00
2019-01-12T20:34:37.222Z,85.10
2019-01-12T20:40:18.213Z,85.90
2019-01-12T20:45:36.543Z,85.90
2019-01-12T20:50:52.089Z,86.20
2019-01-12T20:56:18.155Z,86.00
2019-01-12T21:01:39.919Z,86.40
2019-01-12T21:07:05.898Z,87.20
2019-01-12T21:12:18.261Z,87.80
2019-01-12T21:17:21.908Z,87.70
2019-01-12T21:22:27.094Z,88.60
2019-01-12T21:27:36.720Z,89.50
2019-01-12T21:32:42.306Z,88.20
2019-01-12T21:37:45.590Z,88.70
2019-01-12T21:42:53.249Z,88.50
2019-01-12T21:47:59.614Z,88.90
2019-01-12T21:53:07.593Z,89.00
2019-01-12T21:58:11.215Z,89.90
2019-01-12T22:03:18.100Z,89.80
2019-01-12T22:08:21.694Z,89.50
2019-01-12T22:13:25.311Z,89.80
2019-01-12T22:18:32.384Z,88.60
2019-01-12T22:23:37.638Z,89.00
2019-01-12T22:28:41.254Z,89.20
2019-01-12T22:33:47.903Z,89.00
2019-01-12T22:38:51.516Z,89.50
2019-01-12T22:43:58.387Z,88.60
2019-01-12T22:49:01.993Z,89.20
2019-01-12T22:54:07.306Z,89.30
2019-01-12T22:59:10.929Z,89.70
2019-01-12T23:04:17.590Z,90.10
2019-01-12T23:09:27.014Z,90.10
2019-01-12T23:14:33.122Z,90.40
2019-01-12T23:19:39.194Z,90.10
2019-01-12T23:24:49.973Z,90.20
2019-01-12T23:29:53.553Z,89.90
2019-01-12T23:35:10.864Z,90.00
2019-01-12T23:40:15.021Z,90.20
2019-01-12T23:45:18.717Z,90.20
2019-01-12T23:50:25.226Z,90.20
2019-01-12T23:55:33.027Z,90.20
